• Join FlightAware (Why Join?)
  • Login
  • US Flag 
03:21AM EDT


 

Airport Tracker/Info


-or-


 

Live Flight TrackerFlight Track Log ✈ PDT4314 ✈ 18-Feb-2014 ✈ KBGM - KPHL

Flight Track Log - Related Links

Times and Time Zones

All times are in EST time to prevent confusion due to time zone crossing. See the PDT4314 flight status page for this flight to view local times or setup timezone preferences in your user account.

Time Position Orientation Groundspeed Altitude Reporting Facility
EST Latitude Longitude Course Direction KTS MPH feet Rate Location/Type
07:07PM 41.8681 -75.8686 180° South  Level Estimated
07:08PM 41.8218 -75.8940 202° Southwest  Level FlightAware Approximate
07:09PM 41.7755 -75.9194 202° Southwest  Level FlightAware Approximate
07:10PM 41.7273 -75.9017 154° Southeast  Level Estimated
07:11PM 41.6790 -75.8840 160° South  Level Estimated
07:12PM 41.6308 -75.8663 159° South  Level Estimated
07:13PM 41.5840 -75.8426 159° South  Level FlightAware Approximate
07:14PM 41.5372 -75.8188 159° South  Level FlightAware Approximate
07:15PM 41.4889 -75.8016 153° Southeast  Level Estimated
07:16PM 41.4406 -75.7845 161° South  Level Estimated
07:17PM 41.3947 -75.7577 156° South  Level FlightAware Approximate
07:18PM 41.3489 -75.7311 156° South  Level FlightAware Approximate
07:19PM 41.3030 -75.7044 156° South  Level FlightAware Approximate
07:20PM 41.2545 -75.6883 162° South  Level Estimated
07:21PM 41.2074 -75.6658 160° South  Level FlightAware Approximate
07:22PM 41.1604 -75.6432 160° South  Level FlightAware Approximate
07:23PM 41.1133 -75.6207 160° South  Level FlightAware Approximate
07:24PM 41.0662 -75.5982 160° South  Level FlightAware Approximate
07:25PM 41.0192 -75.5758 160° South  Level FlightAware Approximate
07:25PM 40.6000 -75.4833 162° South 271 312 6,700  Level Philadelphia TRACON
07:25PM 40.5667 -75.4833 180° South 268 308 5,900 -960 Descending Philadelphia TRACON
07:26PM 40.9704 -75.5613 163° South  Level Estimated
07:26PM 40.4833 -75.4833 180° South 272 313 5,100  Level Philadelphia TRACON
07:27PM 40.9229 -75.5404 162° South  Level FlightAware Approximate
07:27PM 40.4167 -75.4667 169° South 257 296 5,000  Level Philadelphia TRACON
07:28PM 40.8754 -75.5195 162° South  Level FlightAware Approximate
07:28PM 40.3500 -75.4333 159° South 261 300 4,800  Level Philadelphia TRACON
07:29PM 40.8279 -75.4987 162° South  Level FlightAware Approximate
07:29PM 40.3000 -75.3833 143° Southeast 257 296 4,200  Level Philadelphia TRACON
07:30PM 40.7805 -75.4779 162° South  Level FlightAware Approximate
07:30PM 40.2333 -75.3333 150° Southeast 249 287 4,000  Level Philadelphia TRACON
07:31PM 40.1667 -75.3000 159° South 242 278 4,000  Level Philadelphia TRACON
07:32PM 40.1167 -75.2500 143° Southeast 242 278 4,000  Level Philadelphia TRACON
07:33PM 40.0667 -75.2000 143° Southeast 246 283 4,000 -120 Level Philadelphia TRACON
07:34PM 40.0333 -75.1333 123° Southeast 258 297 3,800 -540 Descending Philadelphia TRACON
07:35PM 40.0000 -75.0500 118° Southeast 240 276 3,000 -900 Descending Philadelphia TRACON
07:36PM 39.9500 -75.0667 194° South 201 231 2,100 -660 Descending Philadelphia TRACON
07:37PM 39.9167 -75.1167 229° Southwest 164 189 1,700 -540 Descending Philadelphia TRACON
07:38PM 39.9000 -75.1667 247° West 127 146 1,000 -720 Descending Philadelphia TRACON
07:39PM 39.8833 -75.2000 237° Southwest 122 140 400 -720 Descending Philadelphia TRACON